sensor_id;sensor_type;location;lat;lon;timestamp;P1;durP1;ratioP1;P2;durP2;ratioP2
47431;SDS011;33183;52.290;6.144;2022-12-18T00:01:21;15.20;;;10.70;;
47431;SDS011;33183;52.290;6.144;2022-12-18T00:03:46;14.05;;;9.98;;
47431;SDS011;33183;52.290;6.144;2022-12-18T00:06:12;13.90;;;9.88;;
47431;SDS011;33183;52.290;6.144;2022-12-18T00:08:38;14.45;;;9.77;;
47431;SDS011;33183;52.290;6.144;2022-12-18T00:11:07;12.90;;;9.63;;
47431;SDS011;33183;52.290;6.144;2022-12-18T00:13:34;13.00;;;9.73;;
47431;SDS011;33183;52.290;6.144;2022-12-18T00:16:03;15.27;;;10.73;;
47431;SDS011;33183;52.290;6.144;2022-12-18T00:18:30;12.43;;;9.52;;
47431;SDS011;33183;52.290;6.144;2022-12-18T00:20:58;12.85;;;10.25;;
47431;SDS011;33183;52.290;6.144;2022-12-18T00:23:25;13.32;;;10.55;;
47431;SDS011;33183;52.290;6.144;2022-12-18T00:25:51;14.80;;;10.27;;
47431;SDS011;33183;52.290;6.144;2022-12-18T00:28:16;14.02;;;10.43;;
47431;SDS011;33183;52.290;6.144;2022-12-18T00:30:41;14.15;;;10.52;;
47431;SDS011;33183;52.290;6.144;2022-12-18T00:33:06;13.57;;;9.88;;
47431;SDS011;33183;52.290;6.144;2022-12-18T00:35:32;12.98;;;9.95;;
47431;SDS011;33183;52.290;6.144;2022-12-18T00:37:57;15.02;;;10.80;;
47431;SDS011;33183;52.290;6.144;2022-12-18T00:40:22;16.00;;;11.63;;
47431;SDS011;33183;52.290;6.144;2022-12-18T00:42:47;15.05;;;10.20;;
47431;SDS011;33183;52.290;6.144;2022-12-18T00:45:23;13.93;;;11.20;;
47431;SDS011;33183;52.290;6.144;2022-12-18T00:47:53;16.92;;;10.73;;
47431;SDS011;33183;52.290;6.144;2022-12-18T00:50:19;14.93;;;10.85;;
47431;SDS011;33183;52.290;6.144;2022-12-18T00:52:44;15.68;;;11.27;;
47431;SDS011;33183;52.290;6.144;2022-12-18T00:55:10;14.82;;;11.20;;
47431;SDS011;33183;52.290;6.144;2022-12-18T00:57:35;13.68;;;10.57;;
47431;SDS011;33183;52.290;6.144;2022-12-18T01:00:01;13.90;;;10.70;;
47431;SDS011;33183;52.290;6.144;2022-12-18T01:02:27;15.80;;;11.02;;
47431;SDS011;33183;52.290;6.144;2022-12-18T01:04:53;14.45;;;10.68;;
47431;SDS011;33183;52.290;6.144;2022-12-18T01:07:18;16.77;;;11.35;;
47431;SDS011;33183;52.290;6.144;2022-12-18T01:09:43;14.93;;;10.98;;
47431;SDS011;33183;52.290;6.144;2022-12-18T01:12:08;15.60;;;10.88;;
47431;SDS011;33183;52.290;6.144;2022-12-18T01:14:34;15.18;;;10.60;;
47431;SDS011;33183;52.290;6.144;2022-12-18T01:16:59;16.25;;;11.05;;
47431;SDS011;33183;52.290;6.144;2022-12-18T01:19:24;15.90;;;11.88;;
47431;SDS011;33183;52.290;6.144;2022-12-18T01:21:50;15.45;;;10.45;;
47431;SDS011;33183;52.290;6.144;2022-12-18T01:24:15;15.85;;;11.30;;
47431;SDS011;33183;52.290;6.144;2022-12-18T01:26:40;16.00;;;11.40;;
47431;SDS011;33183;52.290;6.144;2022-12-18T01:29:05;15.85;;;11.02;;
47431;SDS011;33183;52.290;6.144;2022-12-18T01:31:31;16.67;;;11.07;;
47431;SDS011;33183;52.290;6.144;2022-12-18T01:33:57;13.93;;;10.15;;
47431;SDS011;33183;52.290;6.144;2022-12-18T01:36:28;14.00;;;10.70;;
47431;SDS011;33183;52.290;6.144;2022-12-18T01:38:55;13.65;;;10.63;;
47431;SDS011;33183;52.290;6.144;2022-12-18T01:41:24;14.98;;;11.38;;
47431;SDS011;33183;52.290;6.144;2022-12-18T01:43:54;14.80;;;11.00;;
47431;SDS011;33183;52.290;6.144;2022-12-18T01:46:22;15.23;;;11.27;;
47431;SDS011;33183;52.290;6.144;2022-12-18T01:48:49;15.98;;;11.80;;
47431;SDS011;33183;52.290;6.144;2022-12-18T01:51:16;13.63;;;10.30;;
47431;SDS011;33183;52.290;6.144;2022-12-18T01:53:42;14.00;;;9.73;;
47431;SDS011;33183;52.290;6.144;2022-12-18T01:56:11;15.13;;;10.68;;
47431;SDS011;33183;52.290;6.144;2022-12-18T02:01:12;15.43;;;10.32;;
47431;SDS011;33183;52.290;6.144;2022-12-18T02:03:40;16.17;;;10.90;;
47431;SDS011;33183;52.290;6.144;2022-12-18T02:06:09;12.85;;;9.70;;
47431;SDS011;33183;52.290;6.144;2022-12-18T02:13:43;15.82;;;10.48;;
47431;SDS011;33183;52.290;6.144;2022-12-18T02:18:51;15.95;;;11.48;;
47431;SDS011;33183;52.290;6.144;2022-12-18T02:24:13;14.02;;;10.40;;
47431;SDS011;33183;52.290;6.144;2022-12-18T02:26:47;13.48;;;10.63;;
47431;SDS011;33183;52.290;6.144;2022-12-18T02:29:15;15.18;;;11.07;;
47431;SDS011;33183;52.290;6.144;2022-12-18T02:31:45;16.08;;;11.63;;
47431;SDS011;33183;52.290;6.144;2022-12-18T02:34:14;14.02;;;10.50;;
47431;SDS011;33183;52.290;6.144;2022-12-18T02:36:42;14.82;;;10.45;;
47431;SDS011;33183;52.290;6.144;2022-12-18T02:39:09;12.98;;;9.98;;
47431;SDS011;33183;52.290;6.144;2022-12-18T02:41:35;16.00;;;10.45;;
47431;SDS011;33183;52.290;6.144;2022-12-18T02:44:02;13.75;;;10.30;;
47431;SDS011;33183;52.290;6.144;2022-12-18T02:46:38;14.68;;;10.25;;
47431;SDS011;33183;52.290;6.144;2022-12-18T02:54:57;14.38;;;10.13;;
47431;SDS011;33183;52.290;6.144;2022-12-18T03:03:02;14.20;;;10.20;;
47431;SDS011;33183;52.290;6.144;2022-12-18T03:08:31;14.80;;;9.98;;
47431;SDS011;33183;52.290;6.144;2022-12-18T03:11:01;15.10;;;10.63;;
47431;SDS011;33183;52.290;6.144;2022-12-18T03:13:32;15.30;;;10.80;;
47431;SDS011;33183;52.290;6.144;2022-12-18T03:15:59;15.95;;;10.75;;
47431;SDS011;33183;52.290;6.144;2022-12-18T03:18:47;14.52;;;10.38;;
47431;SDS011;33183;52.290;6.144;2022-12-18T03:21:15;14.95;;;10.32;;
47431;SDS011;33183;52.290;6.144;2022-12-18T03:23:46;13.55;;;10.23;;
47431;SDS011;33183;52.290;6.144;2022-12-18T03:26:15;14.15;;;10.32;;
47431;SDS011;33183;52.290;6.144;2022-12-18T03:28:44;13.75;;;9.90;;
47431;SDS011;33183;52.290;6.144;2022-12-18T03:31:12;16.33;;;10.55;;
47431;SDS011;33183;52.290;6.144;2022-12-18T03:36:07;14.70;;;9.77;;
47431;SDS011;33183;52.290;6.144;2022-12-18T03:38:32;13.48;;;9.98;;
47431;SDS011;33183;52.290;6.144;2022-12-18T03:41:11;13.20;;;9.93;;
47431;SDS011;33183;52.290;6.144;2022-12-18T03:43:48;14.52;;;10.80;;
47431;SDS011;33183;52.290;6.144;2022-12-18T03:48:58;13.85;;;9.52;;
47431;SDS011;33183;52.290;6.144;2022-12-18T03:51:32;14.18;;;10.00;;
47431;SDS011;33183;52.290;6.144;2022-12-18T03:54:04;13.43;;;9.90;;
47431;SDS011;33183;52.290;6.144;2022-12-18T03:56:33;16.17;;;9.38;;
47431;SDS011;33183;52.290;6.144;2022-12-18T03:59:02;11.95;;;9.40;;
47431;SDS011;33183;52.290;6.144;2022-12-18T04:01:30;12.75;;;9.75;;
47431;SDS011;33183;52.290;6.144;2022-12-18T04:03:59;13.98;;;10.30;;
47431;SDS011;33183;52.290;6.144;2022-12-18T04:06:26;12.95;;;9.80;;
47431;SDS011;33183;52.290;6.144;2022-12-18T04:08:52;12.15;;;9.20;;
47431;SDS011;33183;52.290;6.144;2022-12-18T04:11:18;13.15;;;9.73;;
47431;SDS011;33183;52.290;6.144;2022-12-18T04:13:43;12.48;;;9.05;;
47431;SDS011;33183;52.290;6.144;2022-12-18T04:16:09;15.13;;;10.10;;
47431;SDS011;33183;52.290;6.144;2022-12-18T04:18:35;11.77;;;9.13;;
47431;SDS011;33183;52.290;6.144;2022-12-18T04:21:00;12.80;;;9.57;;
47431;SDS011;33183;52.290;6.144;2022-12-18T04:23:26;12.57;;;9.05;;
47431;SDS011;33183;52.290;6.144;2022-12-18T04:25:51;12.32;;;8.88;;
47431;SDS011;33183;52.290;6.144;2022-12-18T04:28:16;13.07;;;9.30;;
47431;SDS011;33183;52.290;6.144;2022-12-18T04:30:42;13.65;;;9.00;;
47431;SDS011;33183;52.290;6.144;2022-12-18T04:33:08;12.00;;;8.88;;
47431;SDS011;33183;52.290;6.144;2022-12-18T04:35:34;13.55;;;9.70;;
47431;SDS011;33183;52.290;6.144;2022-12-18T04:38:00;12.75;;;9.45;;
47431;SDS011;33183;52.290;6.144;2022-12-18T04:40:25;12.82;;;9.15;;
47431;SDS011;33183;52.290;6.144;2022-12-18T04:42:50;13.43;;;9.25;;
47431;SDS011;33183;52.290;6.144;2022-12-18T04:45:15;13.23;;;9.45;;
47431;SDS011;33183;52.290;6.144;2022-12-18T04:47:41;15.30;;;10.27;;
47431;SDS011;33183;52.290;6.144;2022-12-18T04:50:06;14.50;;;10.00;;
47431;SDS011;33183;52.290;6.144;2022-12-18T04:52:32;12.45;;;9.50;;
47431;SDS011;33183;52.290;6.144;2022-12-18T04:54:57;12.82;;;9.35;;
47431;SDS011;33183;52.290;6.144;2022-12-18T04:57:22;13.55;;;9.20;;
47431;SDS011;33183;52.290;6.144;2022-12-18T04:59:48;11.50;;;8.85;;
47431;SDS011;33183;52.290;6.144;2022-12-18T05:02:13;13.38;;;9.50;;
47431;SDS011;33183;52.290;6.144;2022-12-18T05:04:38;13.25;;;9.40;;
47431;SDS011;33183;52.290;6.144;2022-12-18T05:07:04;12.93;;;8.43;;
47431;SDS011;33183;52.290;6.144;2022-12-18T05:09:29;13.05;;;9.70;;
47431;SDS011;33183;52.290;6.144;2022-12-18T05:11:54;11.57;;;8.93;;
47431;SDS011;33183;52.290;6.144;2022-12-18T05:14:19;10.45;;;9.05;;
47431;SDS011;33183;52.290;6.144;2022-12-18T05:16:45;11.63;;;8.60;;
47431;SDS011;33183;52.290;6.144;2022-12-18T05:19:10;11.95;;;8.55;;
47431;SDS011;33183;52.290;6.144;2022-12-18T05:21:35;11.88;;;8.75;;
47431;SDS011;33183;52.290;6.144;2022-12-18T05:24:01;10.80;;;7.78;;
47431;SDS011;33183;52.290;6.144;2022-12-18T05:26:26;11.35;;;8.18;;
47431;SDS011;33183;52.290;6.144;2022-12-18T05:28:51;11.60;;;8.95;;
47431;SDS011;33183;52.290;6.144;2022-12-18T05:31:16;10.05;;;8.00;;
47431;SDS011;33183;52.290;6.144;2022-12-18T05:33:42;10.35;;;7.90;;
47431;SDS011;33183;52.290;6.144;2022-12-18T05:36:08;12.70;;;8.88;;
47431;SDS011;33183;52.290;6.144;2022-12-18T05:38:34;10.23;;;8.27;;
47431;SDS011;33183;52.290;6.144;2022-12-18T05:41:01;10.43;;;7.97;;
47431;SDS011;33183;52.290;6.144;2022-12-18T05:43:27;12.73;;;8.55;;
47431;SDS011;33183;52.290;6.144;2022-12-18T05:45:53;12.52;;;8.18;;
47431;SDS011;33183;52.290;6.144;2022-12-18T05:48:19;11.25;;;7.60;;
47431;SDS011;33183;52.290;6.144;2022-12-18T05:50:46;10.90;;;7.97;;
47431;SDS011;33183;52.290;6.144;2022-12-18T05:53:12;10.75;;;8.07;;
47431;SDS011;33183;52.290;6.144;2022-12-18T05:55:40;12.10;;;8.40;;
47431;SDS011;33183;52.290;6.144;2022-12-18T05:58:06;9.40;;;7.53;;
47431;SDS011;33183;52.290;6.144;2022-12-18T06:00:33;9.15;;;7.22;;
47431;SDS011;33183;52.290;6.144;2022-12-18T06:02:59;9.40;;;7.43;;
47431;SDS011;33183;52.290;6.144;2022-12-18T06:05:25;9.73;;;7.38;;
47431;SDS011;33183;52.290;6.144;2022-12-18T06:07:50;9.55;;;7.57;;
47431;SDS011;33183;52.290;6.144;2022-12-18T06:10:16;11.18;;;8.32;;
47431;SDS011;33183;52.290;6.144;2022-12-18T06:12:42;10.48;;;7.95;;
47431;SDS011;33183;52.290;6.144;2022-12-18T06:15:07;9.90;;;7.80;;
47431;SDS011;33183;52.290;6.144;2022-12-18T06:17:33;10.45;;;7.40;;
47431;SDS011;33183;52.290;6.144;2022-12-18T06:19:58;10.20;;;7.80;;
47431;SDS011;33183;52.290;6.144;2022-12-18T06:22:24;9.77;;;7.30;;
47431;SDS011;33183;52.290;6.144;2022-12-18T06:24:50;9.88;;;6.97;;
47431;SDS011;33183;52.290;6.144;2022-12-18T06:27:15;8.98;;;7.07;;
47431;SDS011;33183;52.290;6.144;2022-12-18T06:29:41;8.98;;;6.70;;
47431;SDS011;33183;52.290;6.144;2022-12-18T06:32:06;9.55;;;6.90;;
47431;SDS011;33183;52.290;6.144;2022-12-18T06:34:32;9.57;;;6.85;;
47431;SDS011;33183;52.290;6.144;2022-12-18T06:36:58;9.57;;;6.60;;
47431;SDS011;33183;52.290;6.144;2022-12-18T06:39:23;9.65;;;7.00;;
47431;SDS011;33183;52.290;6.144;2022-12-18T06:41:48;9.80;;;7.30;;
47431;SDS011;33183;52.290;6.144;2022-12-18T06:44:14;10.32;;;7.63;;
47431;SDS011;33183;52.290;6.144;2022-12-18T06:46:39;7.75;;;6.22;;
47431;SDS011;33183;52.290;6.144;2022-12-18T06:49:04;8.15;;;6.30;;
47431;SDS011;33183;52.290;6.144;2022-12-18T06:51:29;7.55;;;6.07;;
47431;SDS011;33183;52.290;6.144;2022-12-18T06:53:55;9.60;;;7.15;;
47431;SDS011;33183;52.290;6.144;2022-12-18T06:56:20;8.23;;;6.55;;
47431;SDS011;33183;52.290;6.144;2022-12-18T06:58:46;10.13;;;7.30;;
47431;SDS011;33183;52.290;6.144;2022-12-18T07:01:12;7.38;;;5.90;;
47431;SDS011;33183;52.290;6.144;2022-12-18T07:03:38;8.43;;;6.45;;
47431;SDS011;33183;52.290;6.144;2022-12-18T07:06:04;10.57;;;7.45;;
47431;SDS011;33183;52.290;6.144;2022-12-18T07:08:30;8.00;;;6.82;;
47431;SDS011;33183;52.290;6.144;2022-12-18T07:10:56;9.13;;;6.60;;
47431;SDS011;33183;52.290;6.144;2022-12-18T07:13:21;8.40;;;6.38;;
47431;SDS011;33183;52.290;6.144;2022-12-18T07:15:46;8.88;;;6.57;;
47431;SDS011;33183;52.290;6.144;2022-12-18T07:18:12;8.48;;;6.70;;
47431;SDS011;33183;52.290;6.144;2022-12-18T07:20:37;8.82;;;6.60;;
47431;SDS011;33183;52.290;6.144;2022-12-18T07:23:03;11.45;;;6.22;;
47431;SDS011;33183;52.290;6.144;2022-12-18T07:25:28;8.02;;;6.40;;
47431;SDS011;33183;52.290;6.144;2022-12-18T07:27:54;8.55;;;6.10;;
47431;SDS011;33183;52.290;6.144;2022-12-18T07:30:19;8.88;;;6.40;;
47431;SDS011;33183;52.290;6.144;2022-12-18T07:32:44;8.80;;;6.25;;
47431;SDS011;33183;52.290;6.144;2022-12-18T07:35:09;7.47;;;6.20;;
47431;SDS011;33183;52.290;6.144;2022-12-18T07:37:35;9.90;;;7.25;;
47431;SDS011;33183;52.290;6.144;2022-12-18T07:40:00;9.50;;;6.22;;
47431;SDS011;33183;52.290;6.144;2022-12-18T07:42:25;8.77;;;6.55;;
47431;SDS011;33183;52.290;6.144;2022-12-18T07:45:00;8.70;;;6.60;;
47431;SDS011;33183;52.290;6.144;2022-12-18T07:47:26;8.32;;;6.60;;
47431;SDS011;33183;52.290;6.144;2022-12-18T07:49:53;8.60;;;6.50;;
47431;SDS011;33183;52.290;6.144;2022-12-18T07:52:18;8.65;;;6.22;;
47431;SDS011;33183;52.290;6.144;2022-12-18T07:54:43;10.27;;;6.85;;
47431;SDS011;33183;52.290;6.144;2022-12-18T07:57:09;8.38;;;6.53;;
47431;SDS011;33183;52.290;6.144;2022-12-18T07:59:35;8.30;;;6.32;;
47431;SDS011;33183;52.290;6.144;2022-12-18T08:02:00;7.75;;;6.50;;
47431;SDS011;33183;52.290;6.144;2022-12-18T08:04:26;9.85;;;7.45;;
47431;SDS011;33183;52.290;6.144;2022-12-18T08:06:51;7.50;;;5.95;;
47431;SDS011;33183;52.290;6.144;2022-12-18T08:09:16;9.50;;;7.03;;
47431;SDS011;33183;52.290;6.144;2022-12-18T08:11:42;7.82;;;5.82;;
47431;SDS011;33183;52.290;6.144;2022-12-18T08:14:07;7.63;;;6.03;;
47431;SDS011;33183;52.290;6.144;2022-12-18T08:16:33;10.57;;;7.53;;
47431;SDS011;33183;52.290;6.144;2022-12-18T08:18:58;10.48;;;6.93;;
47431;SDS011;33183;52.290;6.144;2022-12-18T08:21:25;8.23;;;6.30;;
47431;SDS011;33183;52.290;6.144;2022-12-18T08:23:52;7.97;;;6.00;;
47431;SDS011;33183;52.290;6.144;2022-12-18T08:26:18;7.70;;;6.10;;
47431;SDS011;33183;52.290;6.144;2022-12-18T08:28:44;9.07;;;6.43;;
47431;SDS011;33183;52.290;6.144;2022-12-18T08:31:10;9.23;;;6.05;;
47431;SDS011;33183;52.290;6.144;2022-12-18T08:33:35;7.10;;;6.03;;
47431;SDS011;33183;52.290;6.144;2022-12-18T08:36:02;8.80;;;6.85;;
47431;SDS011;33183;52.290;6.144;2022-12-18T08:38:28;8.32;;;5.68;;
47431;SDS011;33183;52.290;6.144;2022-12-18T08:40:57;8.45;;;6.47;;
47431;SDS011;33183;52.290;6.144;2022-12-18T08:43:24;8.40;;;6.03;;
47431;SDS011;33183;52.290;6.144;2022-12-18T08:46:08;8.52;;;6.47;;
47431;SDS011;33183;52.290;6.144;2022-12-18T08:48:33;7.15;;;5.80;;
47431;SDS011;33183;52.290;6.144;2022-12-18T08:50:59;8.93;;;6.47;;
47431;SDS011;33183;52.290;6.144;2022-12-18T08:53:24;8.68;;;6.13;;
47431;SDS011;33183;52.290;6.144;2022-12-18T08:55:50;8.52;;;6.63;;
47431;SDS011;33183;52.290;6.144;2022-12-18T08:58:16;8.75;;;6.93;;
47431;SDS011;33183;52.290;6.144;2022-12-18T09:00:41;7.50;;;6.03;;
47431;SDS011;33183;52.290;6.144;2022-12-18T09:03:13;7.78;;;6.15;;
47431;SDS011;33183;52.290;6.144;2022-12-18T09:05:39;8.40;;;6.50;;
47431;SDS011;33183;52.290;6.144;2022-12-18T09:08:04;8.30;;;6.38;;
47431;SDS011;33183;52.290;6.144;2022-12-18T09:10:30;7.75;;;5.70;;
47431;SDS011;33183;52.290;6.144;2022-12-18T09:12:55;9.43;;;6.93;;
47431;SDS011;33183;52.290;6.144;2022-12-18T09:15:21;9.15;;;6.53;;
47431;SDS011;33183;52.290;6.144;2022-12-18T09:17:46;9.20;;;6.28;;
47431;SDS011;33183;52.290;6.144;2022-12-18T09:20:13;8.30;;;6.13;;
47431;SDS011;33183;52.290;6.144;2022-12-18T09:22:38;8.43;;;6.25;;
47431;SDS011;33183;52.290;6.144;2022-12-18T09:25:03;7.57;;;6.15;;
47431;SDS011;33183;52.290;6.144;2022-12-18T09:27:29;8.70;;;5.65;;
47431;SDS011;33183;52.290;6.144;2022-12-18T09:29:54;9.63;;;6.68;;
47431;SDS011;33183;52.290;6.144;2022-12-18T09:32:19;7.53;;;6.05;;
47431;SDS011;33183;52.290;6.144;2022-12-18T09:34:45;8.68;;;6.38;;
47431;SDS011;33183;52.290;6.144;2022-12-18T09:37:10;8.60;;;6.10;;
47431;SDS011;33183;52.290;6.144;2022-12-18T09:39:35;6.72;;;5.45;;
47431;SDS011;33183;52.290;6.144;2022-12-18T09:42:00;8.30;;;6.65;;
47431;SDS011;33183;52.290;6.144;2022-12-18T09:47:06;7.35;;;5.38;;
47431;SDS011;33183;52.290;6.144;2022-12-18T09:49:37;7.53;;;5.53;;
47431;SDS011;33183;52.290;6.144;2022-12-18T09:54:51;7.35;;;5.63;;
47431;SDS011;33183;52.290;6.144;2022-12-18T09:57:20;8.55;;;5.72;;
47431;SDS011;33183;52.290;6.144;2022-12-18T09:59:55;9.68;;;5.60;;
47431;SDS011;33183;52.290;6.144;2022-12-18T10:02:23;8.10;;;5.63;;
47431;SDS011;33183;52.290;6.144;2022-12-18T10:05:36;6.72;;;5.45;;
47431;SDS011;33183;52.290;6.144;2022-12-18T10:07:55;7.95;;;5.63;;
47431;SDS011;33183;52.290;6.144;2022-12-18T10:13:26;6.75;;;5.22;;
47431;SDS011;33183;52.290;6.144;2022-12-18T10:16:00;8.52;;;5.03;;
47431;SDS011;33183;52.290;6.144;2022-12-18T10:18:37;9.95;;;5.45;;
47431;SDS011;33183;52.290;6.144;2022-12-18T10:21:46;7.35;;;5.32;;
47431;SDS011;33183;52.290;6.144;2022-12-18T10:24:32;6.70;;;5.50;;
47431;SDS011;33183;52.290;6.144;2022-12-18T10:27:15;6.60;;;5.28;;
47431;SDS011;33183;52.290;6.144;2022-12-18T10:29:42;8.07;;;5.05;;
47431;SDS011;33183;52.290;6.144;2022-12-18T10:32:12;8.02;;;5.63;;
47431;SDS011;33183;52.290;6.144;2022-12-18T10:34:39;7.10;;;5.07;;
47431;SDS011;33183;52.290;6.144;2022-12-18T10:37:06;5.78;;;4.40;;
47431;SDS011;33183;52.290;6.144;2022-12-18T10:39:31;6.45;;;5.22;;
47431;SDS011;33183;52.290;6.144;2022-12-18T10:42:10;7.70;;;4.55;;
47431;SDS011;33183;52.290;6.144;2022-12-18T10:44:39;5.40;;;4.78;;
47431;SDS011;33183;52.290;6.144;2022-12-18T10:47:05;7.18;;;4.80;;
47431;SDS011;33183;52.290;6.144;2022-12-18T10:49:32;7.63;;;4.57;;
47431;SDS011;33183;52.290;6.144;2022-12-18T10:52:14;6.22;;;4.78;;
47431;SDS011;33183;52.290;6.144;2022-12-18T10:54:45;6.13;;;4.70;;
47431;SDS011;33183;52.290;6.144;2022-12-18T10:59:52;8.38;;;4.97;;
47431;SDS011;33183;52.290;6.144;2022-12-18T11:02:33;6.57;;;4.90;;
47431;SDS011;33183;52.290;6.144;2022-12-18T11:05:00;6.65;;;4.72;;
47431;SDS011;33183;52.290;6.144;2022-12-18T11:07:25;5.68;;;4.65;;
47431;SDS011;33183;52.290;6.144;2022-12-18T11:10:00;7.07;;;4.63;;
47431;SDS011;33183;52.290;6.144;2022-12-18T11:12:26;5.75;;;4.20;;
47431;SDS011;33183;52.290;6.144;2022-12-18T11:14:53;7.32;;;4.78;;
47431;SDS011;33183;52.290;6.144;2022-12-18T11:17:21;6.72;;;4.50;;
47431;SDS011;33183;52.290;6.144;2022-12-18T11:19:56;5.47;;;4.13;;
47431;SDS011;33183;52.290;6.144;2022-12-18T11:22:29;5.50;;;4.40;;
47431;SDS011;33183;52.290;6.144;2022-12-18T11:27:37;8.85;;;4.93;;
47431;SDS011;33183;52.290;6.144;2022-12-18T11:30:13;6.97;;;4.63;;
47431;SDS011;33183;52.290;6.144;2022-12-18T11:32:50;5.53;;;4.30;;
47431;SDS011;33183;52.290;6.144;2022-12-18T11:35:36;8.77;;;4.97;;
47431;SDS011;33183;52.290;6.144;2022-12-18T11:38:10;5.53;;;3.90;;
47431;SDS011;33183;52.290;6.144;2022-12-18T11:40:40;7.03;;;5.22;;
47431;SDS011;33183;52.290;6.144;2022-12-18T11:43:13;7.18;;;5.28;;
47431;SDS011;33183;52.290;6.144;2022-12-18T11:45:43;5.45;;;3.83;;
47431;SDS011;33183;52.290;6.144;2022-12-18T11:53:14;7.35;;;4.72;;
47431;SDS011;33183;52.290;6.144;2022-12-18T11:55:41;7.22;;;4.25;;
47431;SDS011;33183;52.290;6.144;2022-12-18T12:00:45;6.55;;;4.25;;
47431;SDS011;33183;52.290;6.144;2022-12-18T12:03:38;6.38;;;4.10;;
47431;SDS011;33183;52.290;6.144;2022-12-18T12:06:19;5.95;;;4.47;;
47431;SDS011;33183;52.290;6.144;2022-12-18T12:09:31;6.68;;;3.95;;
47431;SDS011;33183;52.290;6.144;2022-12-18T12:14:34;7.32;;;4.15;;
47431;SDS011;33183;52.290;6.144;2022-12-18T12:17:12;4.75;;;3.72;;
47431;SDS011;33183;52.290;6.144;2022-12-18T12:19:58;6.13;;;3.90;;
47431;SDS011;33183;52.290;6.144;2022-12-18T12:25:29;5.68;;;4.05;;
47431;SDS011;33183;52.290;6.144;2022-12-18T12:38:46;5.53;;;4.45;;
47431;SDS011;33183;52.290;6.144;2022-12-18T12:41:17;5.28;;;3.95;;
47431;SDS011;33183;52.290;6.144;2022-12-18T12:44:04;5.65;;;4.00;;
47431;SDS011;33183;52.290;6.144;2022-12-18T12:46:32;4.83;;;3.77;;
47431;SDS011;33183;52.290;6.144;2022-12-18T12:49:02;4.85;;;3.78;;
47431;SDS011;33183;52.290;6.144;2022-12-18T12:51:32;6.27;;;4.17;;
47431;SDS011;33183;52.290;6.144;2022-12-18T12:54:00;4.97;;;3.35;;
47431;SDS011;33183;52.290;6.144;2022-12-18T12:56:38;6.20;;;3.72;;
47431;SDS011;33183;52.290;6.144;2022-12-18T13:01:40;4.88;;;3.75;;
47431;SDS011;33183;52.290;6.144;2022-12-18T13:07:23;4.80;;;3.78;;
47431;SDS011;33183;52.290;6.144;2022-12-18T13:13:13;5.97;;;3.78;;
47431;SDS011;33183;52.290;6.144;2022-12-18T13:20:41;4.43;;;3.45;;
47431;SDS011;33183;52.290;6.144;2022-12-18T13:25:48;6.32;;;4.63;;
47431;SDS011;33183;52.290;6.144;2022-12-18T13:28:15;4.97;;;3.78;;
47431;SDS011;33183;52.290;6.144;2022-12-18T13:30:42;5.15;;;3.50;;
47431;SDS011;33183;52.290;6.144;2022-12-18T13:38:22;4.38;;;3.33;;
47431;SDS011;33183;52.290;6.144;2022-12-18T13:44:10;5.25;;;3.55;;
47431;SDS011;33183;52.290;6.144;2022-12-18T13:54:47;4.85;;;3.50;;
47431;SDS011;33183;52.290;6.144;2022-12-18T14:00:19;3.90;;;3.50;;
47431;SDS011;33183;52.290;6.144;2022-12-18T14:02:53;4.85;;;3.45;;
47431;SDS011;33183;52.290;6.144;2022-12-18T14:07:52;4.03;;;3.40;;
47431;SDS011;33183;52.290;6.144;2022-12-18T14:10:18;4.38;;;3.25;;
47431;SDS011;33183;52.290;6.144;2022-12-18T14:12:47;4.82;;;3.58;;
47431;SDS011;33183;52.290;6.144;2022-12-18T14:17:51;4.60;;;3.50;;
47431;SDS011;33183;52.290;6.144;2022-12-18T14:20:18;4.90;;;3.67;;
47431;SDS011;33183;52.290;6.144;2022-12-18T14:22:44;6.35;;;4.07;;
47431;SDS011;33183;52.290;6.144;2022-12-18T14:25:15;4.45;;;3.53;;
47431;SDS011;33183;52.290;6.144;2022-12-18T14:27:44;5.35;;;3.92;;
47431;SDS011;33183;52.290;6.144;2022-12-18T14:35:32;5.57;;;3.58;;
47431;SDS011;33183;52.290;6.144;2022-12-18T14:38:19;4.25;;;3.85;;
47431;SDS011;33183;52.290;6.144;2022-12-18T14:40:57;5.00;;;4.05;;
47431;SDS011;33183;52.290;6.144;2022-12-18T14:43:28;5.50;;;3.70;;
47431;SDS011;33183;52.290;6.144;2022-12-18T14:45:54;6.00;;;3.60;;
47431;SDS011;33183;52.290;6.144;2022-12-18T14:48:36;4.05;;;3.65;;
47431;SDS011;33183;52.290;6.144;2022-12-18T14:51:14;6.82;;;3.58;;
47431;SDS011;33183;52.290;6.144;2022-12-18T14:53:54;3.97;;;3.37;;
47431;SDS011;33183;52.290;6.144;2022-12-18T14:56:27;4.90;;;3.95;;
47431;SDS011;33183;52.290;6.144;2022-12-18T14:59:01;5.07;;;3.58;;
47431;SDS011;33183;52.290;6.144;2022-12-18T15:01:29;3.80;;;3.28;;
47431;SDS011;33183;52.290;6.144;2022-12-18T15:03:57;4.85;;;3.55;;
47431;SDS011;33183;52.290;6.144;2022-12-18T15:06:25;5.65;;;4.60;;
47431;SDS011;33183;52.290;6.144;2022-12-18T15:08:55;4.25;;;3.13;;
47431;SDS011;33183;52.290;6.144;2022-12-18T15:11:34;6.93;;;3.53;;
47431;SDS011;33183;52.290;6.144;2022-12-18T15:16:50;4.35;;;3.35;;
47431;SDS011;33183;52.290;6.144;2022-12-18T15:19:16;6.05;;;3.83;;
47431;SDS011;33183;52.290;6.144;2022-12-18T15:21:42;4.50;;;3.22;;
47431;SDS011;33183;52.290;6.144;2022-12-18T15:24:14;5.50;;;3.33;;
47431;SDS011;33183;52.290;6.144;2022-12-18T15:26:42;5.03;;;3.92;;
47431;SDS011;33183;52.290;6.144;2022-12-18T15:29:15;7.35;;;3.60;;
47431;SDS011;33183;52.290;6.144;2022-12-18T15:31:45;5.75;;;3.90;;
47431;SDS011;33183;52.290;6.144;2022-12-18T15:34:35;6.25;;;3.85;;
47431;SDS011;33183;52.290;6.144;2022-12-18T15:37:00;5.63;;;3.75;;
47431;SDS011;33183;52.290;6.144;2022-12-18T15:39:26;5.25;;;3.88;;
47431;SDS011;33183;52.290;6.144;2022-12-18T15:41:51;7.20;;;3.80;;
47431;SDS011;33183;52.290;6.144;2022-12-18T15:44:35;4.97;;;3.75;;
47431;SDS011;33183;52.290;6.144;2022-12-18T15:47:01;3.88;;;3.45;;
47431;SDS011;33183;52.290;6.144;2022-12-18T15:49:26;4.03;;;3.30;;
47431;SDS011;33183;52.290;6.144;2022-12-18T15:51:52;6.57;;;4.00;;
47431;SDS011;33183;52.290;6.144;2022-12-18T15:54:19;5.88;;;3.85;;
47431;SDS011;33183;52.290;6.144;2022-12-18T15:57:04;4.80;;;3.83;;
47431;SDS011;33183;52.290;6.144;2022-12-18T15:59:48;7.60;;;4.22;;
47431;SDS011;33183;52.290;6.144;2022-12-18T16:02:14;7.15;;;3.60;;
47431;SDS011;33183;52.290;6.144;2022-12-18T16:04:42;10.85;;;3.88;;
47431;SDS011;33183;52.290;6.144;2022-12-18T16:07:07;4.78;;;3.83;;
47431;SDS011;33183;52.290;6.144;2022-12-18T16:09:32;7.22;;;5.32;;
47431;SDS011;33183;52.290;6.144;2022-12-18T16:11:57;7.72;;;3.63;;
47431;SDS011;33183;52.290;6.144;2022-12-18T16:14:24;6.15;;;4.20;;
47431;SDS011;33183;52.290;6.144;2022-12-18T16:16:54;5.88;;;4.13;;
47431;SDS011;33183;52.290;6.144;2022-12-18T16:19:21;5.60;;;3.80;;
47431;SDS011;33183;52.290;6.144;2022-12-18T16:21:47;7.28;;;4.20;;
47431;SDS011;33183;52.290;6.144;2022-12-18T16:24:16;5.30;;;4.43;;
47431;SDS011;33183;52.290;6.144;2022-12-18T16:26:49;7.50;;;3.70;;
47431;SDS011;33183;52.290;6.144;2022-12-18T16:29:16;5.32;;;3.63;;
47431;SDS011;33183;52.290;6.144;2022-12-18T16:31:42;4.50;;;3.42;;
47431;SDS011;33183;52.290;6.144;2022-12-18T16:34:17;4.35;;;3.60;;
47431;SDS011;33183;52.290;6.144;2022-12-18T16:36:48;4.10;;;3.50;;
47431;SDS011;33183;52.290;6.144;2022-12-18T16:39:14;6.55;;;3.88;;
47431;SDS011;33183;52.290;6.144;2022-12-18T16:41:40;7.45;;;4.50;;
47431;SDS011;33183;52.290;6.144;2022-12-18T16:44:05;4.00;;;3.40;;
47431;SDS011;33183;52.290;6.144;2022-12-18T16:46:31;5.28;;;4.10;;
47431;SDS011;33183;52.290;6.144;2022-12-18T16:48:57;4.00;;;3.38;;